sensor_id;sensor_type;location;lat;lon;timestamp;P1;durP1;ratioP1;P2;durP2;ratioP2
50821;SDS011;36794;51.212;6.980;2022-08-11T01:22:41;6.57;;;2.25;;
50821;SDS011;36794;51.212;6.980;2022-08-11T01:37:48;7.97;;;1.95;;
50821;SDS011;36794;51.212;6.980;2022-08-11T01:43:20;4.55;;;1.95;;
50821;SDS011;36794;51.212;6.980;2022-08-11T01:46:27;8.88;;;2.28;;
50821;SDS011;36794;51.212;6.980;2022-08-11T01:49:18;8.23;;;2.45;;
50821;SDS011;36794;51.212;6.980;2022-08-11T01:57:37;5.00;;;2.17;;
50821;SDS011;36794;51.212;6.980;2022-08-11T02:00:15;5.57;;;2.47;;
50821;SDS011;36794;51.212;6.980;2022-08-11T02:13:39;5.13;;;1.98;;
50821;SDS011;36794;51.212;6.980;2022-08-11T02:18:36;6.57;;;1.88;;
50821;SDS011;36794;51.212;6.980;2022-08-11T02:21:26;5.03;;;1.90;;
50821;SDS011;36794;51.212;6.980;2022-08-11T02:24:15;5.10;;;2.25;;
50821;SDS011;36794;51.212;6.980;2022-08-11T02:26:47;5.20;;;2.13;;
50821;SDS011;36794;51.212;6.980;2022-08-11T02:29:20;8.18;;;1.92;;
50821;SDS011;36794;51.212;6.980;2022-08-11T02:32:06;6.60;;;2.22;;
50821;SDS011;36794;51.212;6.980;2022-08-11T02:42:32;4.45;;;2.38;;
50821;SDS011;36794;51.212;6.980;2022-08-11T02:53:27;7.15;;;2.30;;
50821;SDS011;36794;51.212;6.980;2022-08-11T02:56:13;4.43;;;2.20;;
50821;SDS011;36794;51.212;6.980;2022-08-11T02:59:06;4.28;;;2.00;;
50821;SDS011;36794;51.212;6.980;2022-08-11T03:04:28;3.92;;;1.85;;
50821;SDS011;36794;51.212;6.980;2022-08-11T03:09:29;6.00;;;2.10;;
50821;SDS011;36794;51.212;6.980;2022-08-11T03:12:08;3.33;;;1.95;;
50821;SDS011;36794;51.212;6.980;2022-08-11T03:14:57;4.13;;;2.08;;
50821;SDS011;36794;51.212;6.980;2022-08-11T03:17:53;4.65;;;1.88;;
50821;SDS011;36794;51.212;6.980;2022-08-11T03:20:30;4.68;;;1.73;;
50821;SDS011;36794;51.212;6.980;2022-08-11T03:23:06;5.13;;;1.98;;
50821;SDS011;36794;51.212;6.980;2022-08-11T03:33:38;3.33;;;2.10;;
50821;SDS011;36794;51.212;6.980;2022-08-11T03:36:49;6.07;;;1.98;;
50821;SDS011;36794;51.212;6.980;2022-08-11T03:39:30;5.38;;;2.20;;
50821;SDS011;36794;51.212;6.980;2022-08-11T03:42:04;4.78;;;1.98;;
50821;SDS011;36794;51.212;6.980;2022-08-11T03:50:13;2.75;;;2.10;;
50821;SDS011;36794;51.212;6.980;2022-08-11T04:00:38;7.80;;;2.67;;
50821;SDS011;36794;51.212;6.980;2022-08-11T04:11:40;5.63;;;2.20;;
50821;SDS011;36794;51.212;6.980;2022-08-11T04:14:14;6.13;;;2.15;;
50821;SDS011;36794;51.212;6.980;2022-08-11T04:29:56;12.68;;;4.53;;
50821;SDS011;36794;51.212;6.980;2022-08-11T04:57:34;63.30;;;9.63;;
50821;SDS011;36794;51.212;6.980;2022-08-11T05:00:20;10.55;;;4.85;;
50821;SDS011;36794;51.212;6.980;2022-08-11T05:11:29;7.43;;;4.90;;
50821;SDS011;36794;51.212;6.980;2022-08-11T05:14:32;8.45;;;4.43;;
50821;SDS011;36794;51.212;6.980;2022-08-11T05:17:10;9.40;;;5.93;;
50821;SDS011;36794;51.212;6.980;2022-08-11T05:19:55;12.10;;;5.28;;
50821;SDS011;36794;51.212;6.980;2022-08-11T05:22:42;8.43;;;4.72;;
50821;SDS011;36794;51.212;6.980;2022-08-11T05:25:31;9.57;;;4.85;;
50821;SDS011;36794;51.212;6.980;2022-08-11T05:28:36;8.80;;;5.28;;
50821;SDS011;36794;51.212;6.980;2022-08-11T05:31:23;8.98;;;4.57;;
50821;SDS011;36794;51.212;6.980;2022-08-11T05:37:00;16.27;;;5.65;;
50821;SDS011;36794;51.212;6.980;2022-08-11T05:39:30;10.95;;;4.50;;
50821;SDS011;36794;51.212;6.980;2022-08-11T05:42:16;11.80;;;5.07;;
50821;SDS011;36794;51.212;6.980;2022-08-11T05:45:03;9.98;;;4.72;;
50821;SDS011;36794;51.212;6.980;2022-08-11T05:47:49;12.68;;;5.20;;
50821;SDS011;36794;51.212;6.980;2022-08-11T05:50:34;9.52;;;4.63;;
50821;SDS011;36794;51.212;6.980;2022-08-11T05:53:18;10.48;;;3.75;;
50821;SDS011;36794;51.212;6.980;2022-08-11T05:56:04;18.58;;;5.03;;
50821;SDS011;36794;51.212;6.980;2022-08-11T05:58:50;10.15;;;3.90;;
50821;SDS011;36794;51.212;6.980;2022-08-11T06:01:26;10.88;;;4.55;;
50821;SDS011;36794;51.212;6.980;2022-08-11T06:03:55;12.68;;;3.90;;
50821;SDS011;36794;51.212;6.980;2022-08-11T06:06:45;8.52;;;4.00;;
50821;SDS011;36794;51.212;6.980;2022-08-11T06:09:14;8.45;;;3.90;;
50821;SDS011;36794;51.212;6.980;2022-08-11T06:11:44;9.98;;;3.33;;
50821;SDS011;36794;51.212;6.980;2022-08-11T06:14:11;11.70;;;3.30;;
50821;SDS011;36794;51.212;6.980;2022-08-11T06:16:37;10.60;;;2.72;;
50821;SDS011;36794;51.212;6.980;2022-08-11T06:19:05;3.45;;;2.38;;
50821;SDS011;36794;51.212;6.980;2022-08-11T06:21:33;8.05;;;2.17;;
50821;SDS011;36794;51.212;6.980;2022-08-11T06:24:11;5.25;;;2.22;;
50821;SDS011;36794;51.212;6.980;2022-08-11T06:26:38;7.35;;;2.10;;
50821;SDS011;36794;51.212;6.980;2022-08-11T06:29:05;5.25;;;2.30;;
50821;SDS011;36794;51.212;6.980;2022-08-11T06:31:32;7.65;;;2.70;;
50821;SDS011;36794;51.212;6.980;2022-08-11T06:34:10;6.03;;;2.53;;
50821;SDS011;36794;51.212;6.980;2022-08-11T06:36:46;7.30;;;2.58;;
50821;SDS011;36794;51.212;6.980;2022-08-11T06:41:45;6.22;;;2.40;;
50821;SDS011;36794;51.212;6.980;2022-08-11T06:49:10;5.15;;;2.30;;
50821;SDS011;36794;51.212;6.980;2022-08-11T06:51:55;7.28;;;2.20;;
50821;SDS011;36794;51.212;6.980;2022-08-11T06:54:23;9.00;;;2.85;;
50821;SDS011;36794;51.212;6.980;2022-08-11T06:56:50;5.30;;;1.90;;
50821;SDS011;36794;51.212;6.980;2022-08-11T06:59:35;4.53;;;2.30;;
50821;SDS011;36794;51.212;6.980;2022-08-11T07:02:27;10.10;;;2.63;;
50821;SDS011;36794;51.212;6.980;2022-08-11T07:05:07;8.13;;;2.40;;
50821;SDS011;36794;51.212;6.980;2022-08-11T07:07:50;15.35;;;2.33;;
50821;SDS011;36794;51.212;6.980;2022-08-11T07:10:59;8.77;;;2.28;;
50821;SDS011;36794;51.212;6.980;2022-08-11T07:13:48;3.78;;;2.15;;
50821;SDS011;36794;51.212;6.980;2022-08-11T07:16:35;3.25;;;1.90;;
50821;SDS011;36794;51.212;6.980;2022-08-11T07:19:05;11.00;;;1.85;;
50821;SDS011;36794;51.212;6.980;2022-08-11T07:21:50;4.30;;;1.83;;
50821;SDS011;36794;51.212;6.980;2022-08-11T07:27:19;4.20;;;2.00;;
50821;SDS011;36794;51.212;6.980;2022-08-11T07:30:06;5.50;;;1.73;;
50821;SDS011;36794;51.212;6.980;2022-08-11T07:32:34;4.85;;;1.83;;
50821;SDS011;36794;51.212;6.980;2022-08-11T07:35:11;9.00;;;1.88;;
50821;SDS011;36794;51.212;6.980;2022-08-11T07:37:40;2.88;;;1.60;;
50821;SDS011;36794;51.212;6.980;2022-08-11T07:40:07;3.95;;;1.50;;
50821;SDS011;36794;51.212;6.980;2022-08-11T07:42:33;3.25;;;1.80;;
50821;SDS011;36794;51.212;6.980;2022-08-11T07:45:00;7.28;;;1.75;;
50821;SDS011;36794;51.212;6.980;2022-08-11T07:47:45;10.65;;;2.83;;
50821;SDS011;36794;51.212;6.980;2022-08-11T07:50:30;5.20;;;1.50;;
50821;SDS011;36794;51.212;6.980;2022-08-11T07:53:15;5.78;;;1.80;;
50821;SDS011;36794;51.212;6.980;2022-08-11T07:55:43;6.95;;;2.85;;
50821;SDS011;36794;51.212;6.980;2022-08-11T07:58:09;8.27;;;2.30;;
50821;SDS011;36794;51.212;6.980;2022-08-11T08:00:55;5.93;;;1.80;;
50821;SDS011;36794;51.212;6.980;2022-08-11T08:03:41;4.70;;;1.80;;
50821;SDS011;36794;51.212;6.980;2022-08-11T08:06:27;7.03;;;1.88;;
50821;SDS011;36794;51.212;6.980;2022-08-11T08:09:12;3.60;;;1.70;;
50821;SDS011;36794;51.212;6.980;2022-08-11T08:11:58;7.88;;;1.77;;
50821;SDS011;36794;51.212;6.980;2022-08-11T08:14:44;7.30;;;1.65;;
50821;SDS011;36794;51.212;6.980;2022-08-11T08:17:29;2.63;;;1.42;;
50821;SDS011;36794;51.212;6.980;2022-08-11T08:20:15;6.78;;;1.70;;
50821;SDS011;36794;51.212;6.980;2022-08-11T08:22:41;6.80;;;1.88;;
50821;SDS011;36794;51.212;6.980;2022-08-11T08:25:07;2.60;;;1.55;;
50821;SDS011;36794;51.212;6.980;2022-08-11T08:27:34;5.82;;;1.67;;
50821;SDS011;36794;51.212;6.980;2022-08-11T08:30:03;6.00;;;1.95;;
50821;SDS011;36794;51.212;6.980;2022-08-11T08:32:48;7.50;;;1.80;;
50821;SDS011;36794;51.212;6.980;2022-08-11T08:35:15;4.95;;;1.50;;
50821;SDS011;36794;51.212;6.980;2022-08-11T08:37:41;5.30;;;1.80;;
50821;SDS011;36794;51.212;6.980;2022-08-11T08:40:08;3.95;;;1.48;;
50821;SDS011;36794;51.212;6.980;2022-08-11T08:42:37;1.90;;;1.38;;
50821;SDS011;36794;51.212;6.980;2022-08-11T08:45:10;3.88;;;1.88;;
50821;SDS011;36794;51.212;6.980;2022-08-11T08:47:38;4.57;;;1.65;;
50821;SDS011;36794;51.212;6.980;2022-08-11T08:50:07;3.25;;;1.25;;
50821;SDS011;36794;51.212;6.980;2022-08-11T08:52:36;8.20;;;2.00;;
50821;SDS011;36794;51.212;6.980;2022-08-11T08:55:05;7.68;;;1.98;;
50821;SDS011;36794;51.212;6.980;2022-08-11T08:57:32;5.32;;;1.40;;
50821;SDS011;36794;51.212;6.980;2022-08-11T08:59:58;5.85;;;1.50;;
50821;SDS011;36794;51.212;6.980;2022-08-11T09:02:25;5.82;;;1.85;;
50821;SDS011;36794;51.212;6.980;2022-08-11T09:04:51;6.20;;;1.55;;
50821;SDS011;36794;51.212;6.980;2022-08-11T09:07:18;5.80;;;1.70;;
50821;SDS011;36794;51.212;6.980;2022-08-11T09:09:49;4.30;;;1.38;;
50821;SDS011;36794;51.212;6.980;2022-08-11T09:12:15;3.42;;;1.38;;
50821;SDS011;36794;51.212;6.980;2022-08-11T09:14:44;3.58;;;1.67;;
50821;SDS011;36794;51.212;6.980;2022-08-11T09:17:33;4.32;;;1.40;;
50821;SDS011;36794;51.212;6.980;2022-08-11T09:20:03;5.45;;;1.50;;
50821;SDS011;36794;51.212;6.980;2022-08-11T09:22:30;2.28;;;1.35;;
50821;SDS011;36794;51.212;6.980;2022-08-11T09:25:15;4.38;;;1.60;;
50821;SDS011;36794;51.212;6.980;2022-08-11T09:28:00;5.75;;;1.50;;
50821;SDS011;36794;51.212;6.980;2022-08-11T09:30:29;2.35;;;1.70;;
50821;SDS011;36794;51.212;6.980;2022-08-11T09:32:55;3.00;;;1.50;;
50821;SDS011;36794;51.212;6.980;2022-08-11T09:35:27;2.75;;;1.52;;
50821;SDS011;36794;51.212;6.980;2022-08-11T09:37:54;5.55;;;1.60;;
50821;SDS011;36794;51.212;6.980;2022-08-11T09:40:43;5.75;;;1.30;;
50821;SDS011;36794;51.212;6.980;2022-08-11T09:43:10;7.65;;;1.60;;
50821;SDS011;36794;51.212;6.980;2022-08-11T09:45:55;4.55;;;1.40;;
50821;SDS011;36794;51.212;6.980;2022-08-11T09:48:23;4.72;;;1.58;;
50821;SDS011;36794;51.212;6.980;2022-08-11T09:50:50;5.88;;;1.42;;
50821;SDS011;36794;51.212;6.980;2022-08-11T09:53:17;7.40;;;1.65;;
50821;SDS011;36794;51.212;6.980;2022-08-11T09:55:43;2.60;;;1.42;;
50821;SDS011;36794;51.212;6.980;2022-08-11T09:58:10;3.65;;;1.52;;
50821;SDS011;36794;51.212;6.980;2022-08-11T10:00:41;9.05;;;1.50;;
50821;SDS011;36794;51.212;6.980;2022-08-11T10:03:23;9.25;;;1.50;;
50821;SDS011;36794;51.212;6.980;2022-08-11T10:05:59;3.03;;;1.70;;
50821;SDS011;36794;51.212;6.980;2022-08-11T10:08:44;3.20;;;1.33;;
50821;SDS011;36794;51.212;6.980;2022-08-11T10:11:13;1.88;;;1.30;;
50821;SDS011;36794;51.212;6.980;2022-08-11T10:13:43;2.78;;;1.30;;
50821;SDS011;36794;51.212;6.980;2022-08-11T10:16:29;5.55;;;1.95;;
50821;SDS011;36794;51.212;6.980;2022-08-11T10:18:57;4.47;;;1.20;;
50821;SDS011;36794;51.212;6.980;2022-08-11T10:23:54;3.35;;;1.40;;
50821;SDS011;36794;51.212;6.980;2022-08-11T10:26:40;4.90;;;1.60;;
50821;SDS011;36794;51.212;6.980;2022-08-11T10:29:23;2.85;;;1.35;;
50821;SDS011;36794;51.212;6.980;2022-08-11T10:32:08;8.10;;;1.60;;
50821;SDS011;36794;51.212;6.980;2022-08-11T10:34:53;7.13;;;1.38;;
50821;SDS011;36794;51.212;6.980;2022-08-11T10:37:20;7.55;;;1.70;;
50821;SDS011;36794;51.212;6.980;2022-08-11T10:39:48;3.60;;;1.27;;
50821;SDS011;36794;51.212;6.980;2022-08-11T10:42:15;6.93;;;1.40;;
50821;SDS011;36794;51.212;6.980;2022-08-11T10:45:00;2.05;;;1.30;;
50821;SDS011;36794;51.212;6.980;2022-08-11T10:47:28;3.97;;;1.40;;
50821;SDS011;36794;51.212;6.980;2022-08-11T10:50:00;4.03;;;1.67;;
50821;SDS011;36794;51.212;6.980;2022-08-11T10:52:46;2.33;;;0.90;;
50821;SDS011;36794;51.212;6.980;2022-08-11T10:55:32;3.67;;;1.40;;
50821;SDS011;36794;51.212;6.980;2022-08-11T10:58:17;5.50;;;1.52;;
50821;SDS011;36794;51.212;6.980;2022-08-11T11:01:02;5.55;;;1.40;;
50821;SDS011;36794;51.212;6.980;2022-08-11T11:03:29;4.07;;;1.30;;
50821;SDS011;36794;51.212;6.980;2022-08-11T11:06:08;5.32;;;1.35;;
50821;SDS011;36794;51.212;6.980;2022-08-11T11:08:41;2.50;;;1.23;;
50821;SDS011;36794;51.212;6.980;2022-08-11T11:11:23;5.50;;;1.20;;
50821;SDS011;36794;51.212;6.980;2022-08-11T11:14:16;3.55;;;1.15;;
50821;SDS011;36794;51.212;6.980;2022-08-11T11:17:03;2.63;;;1.30;;
50821;SDS011;36794;51.212;6.980;2022-08-11T11:19:49;2.35;;;1.25;;
50821;SDS011;36794;51.212;6.980;2022-08-11T11:22:17;7.63;;;1.30;;
50821;SDS011;36794;51.212;6.980;2022-08-11T11:27:36;4.75;;;1.55;;
50821;SDS011;36794;51.212;6.980;2022-08-11T11:30:04;4.68;;;1.48;;
50821;SDS011;36794;51.212;6.980;2022-08-11T11:35:09;4.97;;;1.30;;
50821;SDS011;36794;51.212;6.980;2022-08-11T11:37:36;3.35;;;1.38;;
50821;SDS011;36794;51.212;6.980;2022-08-11T11:40:09;3.40;;;1.30;;
50821;SDS011;36794;51.212;6.980;2022-08-11T11:42:36;3.58;;;1.40;;
50821;SDS011;36794;51.212;6.980;2022-08-11T11:45:03;2.60;;;1.30;;
50821;SDS011;36794;51.212;6.980;2022-08-11T11:47:29;7.30;;;1.65;;
50821;SDS011;36794;51.212;6.980;2022-08-11T11:49:56;4.28;;;1.20;;
50821;SDS011;36794;51.212;6.980;2022-08-11T11:52:22;3.28;;;1.30;;
50821;SDS011;36794;51.212;6.980;2022-08-11T11:54:50;3.45;;;1.30;;
50821;SDS011;36794;51.212;6.980;2022-08-11T11:57:17;10.88;;;1.20;;
50821;SDS011;36794;51.212;6.980;2022-08-11T12:00:07;3.13;;;1.58;;
50821;SDS011;36794;51.212;6.980;2022-08-11T12:02:52;5.82;;;1.77;;
50821;SDS011;36794;51.212;6.980;2022-08-11T12:05:19;2.47;;;1.20;;
50821;SDS011;36794;51.212;6.980;2022-08-11T12:07:46;2.65;;;1.17;;
50821;SDS011;36794;51.212;6.980;2022-08-11T12:10:30;3.78;;;1.20;;
50821;SDS011;36794;51.212;6.980;2022-08-11T12:12:58;6.20;;;1.40;;
50821;SDS011;36794;51.212;6.980;2022-08-11T12:15:43;4.20;;;1.40;;
50821;SDS011;36794;51.212;6.980;2022-08-11T12:18:10;5.30;;;1.63;;
50821;SDS011;36794;51.212;6.980;2022-08-11T12:20:36;4.00;;;1.38;;
50821;SDS011;36794;51.212;6.980;2022-08-11T12:23:03;3.42;;;1.20;;
50821;SDS011;36794;51.212;6.980;2022-08-11T12:25:47;4.00;;;1.30;;
50821;SDS011;36794;51.212;6.980;2022-08-11T12:28:32;7.53;;;1.60;;
50821;SDS011;36794;51.212;6.980;2022-08-11T12:30:58;3.10;;;1.25;;
50821;SDS011;36794;51.212;6.980;2022-08-11T12:33:24;4.22;;;1.27;;
50821;SDS011;36794;51.212;6.980;2022-08-11T12:35:51;4.53;;;1.33;;
50821;SDS011;36794;51.212;6.980;2022-08-11T12:38:21;3.97;;;1.30;;
50821;SDS011;36794;51.212;6.980;2022-08-11T12:40:48;4.47;;;1.40;;
50821;SDS011;36794;51.212;6.980;2022-08-11T12:43:33;6.78;;;1.40;;
50821;SDS011;36794;51.212;6.980;2022-08-11T12:46:22;5.45;;;1.40;;
50821;SDS011;36794;51.212;6.980;2022-08-11T12:48:54;3.45;;;1.33;;
50821;SDS011;36794;51.212;6.980;2022-08-11T12:51:40;2.83;;;1.45;;
50821;SDS011;36794;51.212;6.980;2022-08-11T12:54:30;4.30;;;1.30;;
50821;SDS011;36794;51.212;6.980;2022-08-11T12:57:00;6.63;;;1.55;;
50821;SDS011;36794;51.212;6.980;2022-08-11T12:59:45;4.82;;;1.25;;
50821;SDS011;36794;51.212;6.980;2022-08-11T13:02:30;6.50;;;1.58;;
50821;SDS011;36794;51.212;6.980;2022-08-11T13:05:15;4.38;;;1.30;;
50821;SDS011;36794;51.212;6.980;2022-08-11T13:07:42;6.95;;;1.33;;
50821;SDS011;36794;51.212;6.980;2022-08-11T13:10:09;2.50;;;1.30;;
50821;SDS011;36794;51.212;6.980;2022-08-11T13:12:36;4.43;;;1.35;;
50821;SDS011;36794;51.212;6.980;2022-08-11T13:15:19;1.63;;;1.10;;
50821;SDS011;36794;51.212;6.980;2022-08-11T13:17:45;2.95;;;1.48;;
50821;SDS011;36794;51.212;6.980;2022-08-11T13:20:14;1.15;;;0.85;;
50821;SDS011;36794;51.212;6.980;2022-08-11T13:22:41;3.58;;;1.50;;
50821;SDS011;36794;51.212;6.980;2022-08-11T13:25:11;5.85;;;1.33;;
50821;SDS011;36794;51.212;6.980;2022-08-11T13:27:38;4.00;;;1.30;;
50821;SDS011;36794;51.212;6.980;2022-08-11T13:30:05;3.38;;;1.33;;
50821;SDS011;36794;51.212;6.980;2022-08-11T13:32:50;4.18;;;1.50;;
50821;SDS011;36794;51.212;6.980;2022-08-11T13:35:16;4.18;;;1.40;;
50821;SDS011;36794;51.212;6.980;2022-08-11T13:37:45;3.60;;;1.38;;
50821;SDS011;36794;51.212;6.980;2022-08-11T13:40:12;4.75;;;1.73;;
50821;SDS011;36794;51.212;6.980;2022-08-11T13:42:41;7.05;;;1.40;;
50821;SDS011;36794;51.212;6.980;2022-08-11T13:45:08;2.67;;;1.40;;
50821;SDS011;36794;51.212;6.980;2022-08-11T13:47:35;7.88;;;1.75;;
50821;SDS011;36794;51.212;6.980;2022-08-11T13:50:02;5.70;;;1.88;;
50821;SDS011;36794;51.212;6.980;2022-08-11T13:52:29;2.92;;;1.38;;
50821;SDS011;36794;51.212;6.980;2022-08-11T13:54:55;2.95;;;1.40;;
50821;SDS011;36794;51.212;6.980;2022-08-11T13:57:21;2.55;;;1.67;;
50821;SDS011;36794;51.212;6.980;2022-08-11T13:59:51;8.23;;;1.60;;
50821;SDS011;36794;51.212;6.980;2022-08-11T14:02:18;4.20;;;1.85;;
50821;SDS011;36794;51.212;6.980;2022-08-11T14:04:55;8.45;;;1.75;;
50821;SDS011;36794;51.212;6.980;2022-08-11T14:07:23;2.45;;;1.67;;
50821;SDS011;36794;51.212;6.980;2022-08-11T14:09:52;5.35;;;1.40;;
50821;SDS011;36794;51.212;6.980;2022-08-11T14:12:22;7.80;;;2.30;;
50821;SDS011;36794;51.212;6.980;2022-08-11T14:15:09;4.35;;;1.85;;
50821;SDS011;36794;51.212;6.980;2022-08-11T14:17:37;5.30;;;1.65;;
50821;SDS011;36794;51.212;6.980;2022-08-11T14:20:05;7.07;;;1.75;;
50821;SDS011;36794;51.212;6.980;2022-08-11T14:22:32;5.07;;;1.92;;
50821;SDS011;36794;51.212;6.980;2022-08-11T14:25:00;3.97;;;1.70;;
50821;SDS011;36794;51.212;6.980;2022-08-11T14:27:26;5.82;;;1.63;;
50821;SDS011;36794;51.212;6.980;2022-08-11T14:29:55;6.82;;;1.88;;
50821;SDS011;36794;51.212;6.980;2022-08-11T14:32:21;7.97;;;1.90;;
50821;SDS011;36794;51.212;6.980;2022-08-11T14:34:48;4.35;;;1.63;;
50821;SDS011;36794;51.212;6.980;2022-08-11T14:37:17;4.03;;;1.63;;
50821;SDS011;36794;51.212;6.980;2022-08-11T14:39:45;4.75;;;1.77;;
50821;SDS011;36794;51.212;6.980;2022-08-11T14:42:13;5.03;;;1.80;;
50821;SDS011;36794;51.212;6.980;2022-08-11T14:45:03;5.05;;;2.03;;
50821;SDS011;36794;51.212;6.980;2022-08-11T14:47:53;5.13;;;1.60;;
50821;SDS011;36794;51.212;6.980;2022-08-11T14:50:20;3.88;;;1.83;;
50821;SDS011;36794;51.212;6.980;2022-08-11T14:52:52;3.25;;;1.50;;
50821;SDS011;36794;51.212;6.980;2022-08-11T14:55:21;5.05;;;1.70;;
50821;SDS011;36794;51.212;6.980;2022-08-11T14:58:07;8.25;;;1.85;;
50821;SDS011;36794;51.212;6.980;2022-08-11T15:00:34;6.47;;;1.73;;
50821;SDS011;36794;51.212;6.980;2022-08-11T15:03:02;6.63;;;2.00;;
50821;SDS011;36794;51.212;6.980;2022-08-11T15:05:34;3.75;;;1.42;;
50821;SDS011;36794;51.212;6.980;2022-08-11T15:08:00;5.55;;;1.90;;
50821;SDS011;36794;51.212;6.980;2022-08-11T15:10:26;4.57;;;1.80;;
50821;SDS011;36794;51.212;6.980;2022-08-11T15:12:53;12.98;;;1.70;;
50821;SDS011;36794;51.212;6.980;2022-08-11T15:15:19;3.38;;;1.70;;
50821;SDS011;36794;51.212;6.980;2022-08-11T15:18:08;7.68;;;1.90;;
50821;SDS011;36794;51.212;6.980;2022-08-11T15:20:35;5.60;;;1.58;;
50821;SDS011;36794;51.212;6.980;2022-08-11T15:23:19;11.70;;;2.25;;
50821;SDS011;36794;51.212;6.980;2022-08-11T15:26:09;7.32;;;2.00;;
50821;SDS011;36794;51.212;6.980;2022-08-11T15:28:38;3.78;;;1.70;;
50821;SDS011;36794;51.212;6.980;2022-08-11T15:31:24;9.13;;;1.80;;
50821;SDS011;36794;51.212;6.980;2022-08-11T15:34:11;3.53;;;1.40;;
50821;SDS011;36794;51.212;6.980;2022-08-11T15:36:57;10.32;;;1.67;;
50821;SDS011;36794;51.212;6.980;2022-08-11T15:42:31;5.82;;;1.90;;
50821;SDS011;36794;51.212;6.980;2022-08-11T15:45:18;7.38;;;1.90;;
50821;SDS011;36794;51.212;6.980;2022-08-11T15:48:08;9.50;;;1.70;;
50821;SDS011;36794;51.212;6.980;2022-08-11T15:50:51;8.68;;;1.65;;
50821;SDS011;36794;51.212;6.980;2022-08-11T15:56:09;5.43;;;1.80;;
50821;SDS011;36794;51.212;6.980;2022-08-11T15:58:41;4.10;;;1.80;;
50821;SDS011;36794;51.212;6.980;2022-08-11T16:01:27;7.55;;;1.90;;
50821;SDS011;36794;51.212;6.980;2022-08-11T16:04:14;5.35;;;1.90;;
50821;SDS011;36794;51.212;6.980;2022-08-11T16:09:17;6.72;;;1.63;;
50821;SDS011;36794;51.212;6.980;2022-08-11T16:11:45;8.45;;;1.48;;
50821;SDS011;36794;51.212;6.980;2022-08-11T16:14:11;8.43;;;2.13;;
50821;SDS011;36794;51.212;6.980;2022-08-11T16:16:56;6.22;;;1.60;;
50821;SDS011;36794;51.212;6.980;2022-08-11T16:19:23;9.00;;;1.50;;
50821;SDS011;36794;51.212;6.980;2022-08-11T16:21:50;5.78;;;1.52;;
50821;SDS011;36794;51.212;6.980;2022-08-11T16:24:18;8.25;;;1.80;;
50821;SDS011;36794;51.212;6.980;2022-08-11T16:26:45;8.88;;;2.00;;
50821;SDS011;36794;51.212;6.980;2022-08-11T16:29:12;6.72;;;1.48;;
50821;SDS011;36794;51.212;6.980;2022-08-11T16:31:38;2.92;;;1.60;;
50821;SDS011;36794;51.212;6.980;2022-08-11T16:34:05;5.00;;;1.60;;
50821;SDS011;36794;51.212;6.980;2022-08-11T16:36:54;5.45;;;1.60;;
50821;SDS011;36794;51.212;6.980;2022-08-11T16:39:40;4.65;;;1.70;;
50821;SDS011;36794;51.212;6.980;2022-08-11T16:42:06;4.78;;;1.75;;
50821;SDS011;36794;51.212;6.980;2022-08-11T16:44:52;4.22;;;1.75;;
50821;SDS011;36794;51.212;6.980;2022-08-11T16:47:39;2.97;;;1.40;;
50821;SDS011;36794;51.212;6.980;2022-08-11T16:50:06;6.20;;;1.70;;
50821;SDS011;36794;51.212;6.980;2022-08-11T16:52:33;4.28;;;1.40;;
50821;SDS011;36794;51.212;6.980;2022-08-11T16:54:59;9.52;;;1.80;;
50821;SDS011;36794;51.212;6.980;2022-08-11T16:57:27;6.80;;;2.38;;
50821;SDS011;36794;51.212;6.980;2022-08-11T17:00:13;7.07;;;2.20;;
50821;SDS011;36794;51.212;6.980;2022-08-11T17:02:41;9.20;;;1.90;;
50821;SDS011;36794;51.212;6.980;2022-08-11T17:05:27;5.75;;;1.70;;
50821;SDS011;36794;51.212;6.980;2022-08-11T17:08:15;6.10;;;1.98;;
50821;SDS011;36794;51.212;6.980;2022-08-11T17:11:02;9.80;;;2.00;;
50821;SDS011;36794;51.212;6.980;2022-08-11T17:14:00;4.85;;;1.70;;
50821;SDS011;36794;51.212;6.980;2022-08-11T17:16:27;9.15;;;1.88;;
50821;SDS011;36794;51.212;6.980;2022-08-11T17:19:09;8.68;;;2.25;;
50821;SDS011;36794;51.212;6.980;2022-08-11T17:21:36;8.57;;;1.40;;
50821;SDS011;36794;51.212;6.980;2022-08-11T17:24:26;4.35;;;1.83;;
50821;SDS011;36794;51.212;6.980;2022-08-11T17:26:53;7.22;;;2.08;;
50821;SDS011;36794;51.212;6.980;2022-08-11T17:29:31;7.75;;;1.90;;
50821;SDS011;36794;51.212;6.980;2022-08-11T17:32:01;3.03;;;1.70;;
50821;SDS011;36794;51.212;6.980;2022-08-11T17:34:47;5.60;;;1.80;;
50821;SDS011;36794;51.212;6.980;2022-08-11T17:37:33;9.68;;;1.80;;
50821;SDS011;36794;51.212;6.980;2022-08-11T17:40:02;4.65;;;1.92;;
50821;SDS011;36794;51.212;6.980;2022-08-11T17:42:29;7.72;;;2.00;;
50821;SDS011;36794;51.212;6.980;2022-08-11T17:45:15;7.63;;;1.65;;
50821;SDS011;36794;51.212;6.980;2022-08-11T17:48:01;6.55;;;2.65;;
50821;SDS011;36794;51.212;6.980;2022-08-11T17:50:47;8.60;;;1.83;;
50821;SDS011;36794;51.212;6.980;2022-08-11T17:53:14;8.32;;;2.28;;
50821;SDS011;36794;51.212;6.980;2022-08-11T17:56:00;7.85;;;2.15;;
50821;SDS011;36794;51.212;6.980;2022-08-11T17:58:45;6.20;;;1.90;;
50821;SDS011;36794;51.212;6.980;2022-08-11T18:01:31;4.53;;;1.75;;
50821;SDS011;36794;51.212;6.980;2022-08-11T18:03:59;6.07;;;1.70;;
50821;SDS011;36794;51.212;6.980;2022-08-11T18:06:26;9.45;;;3.00;;
50821;SDS011;36794;51.212;6.980;2022-08-11T18:08:53;8.45;;;1.70;;
50821;SDS011;36794;51.212;6.980;2022-08-11T18:11:39;10.02;;;2.03;;
50821;SDS011;36794;51.212;6.980;2022-08-11T18:14:24;3.15;;;1.60;;
50821;SDS011;36794;51.212;6.980;2022-08-11T18:17:09;3.78;;;1.60;;
50821;SDS011;36794;51.212;6.980;2022-08-11T18:19:54;19.98;;;2.20;;
50821;SDS011;36794;51.212;6.980;2022-08-11T18:22:39;8.43;;;2.00;;
50821;SDS011;36794;51.212;6.980;2022-08-11T18:25:25;8.38;;;2.10;;
50821;SDS011;36794;51.212;6.980;2022-08-11T18:28:11;5.10;;;1.70;;
50821;SDS011;36794;51.212;6.980;2022-08-11T18:30:58;6.40;;;1.65;;
50821;SDS011;36794;51.212;6.980;2022-08-11T18:33:50;4.25;;;1.75;;
50821;SDS011;36794;51.212;6.980;2022-08-11T18:36:50;5.88;;;2.03;;
50821;SDS011;36794;51.212;6.980;2022-08-11T18:39:36;8.05;;;2.22;;
50821;SDS011;36794;51.212;6.980;2022-08-11T18:42:25;8.75;;;2.17;;
50821;SDS011;36794;51.212;6.980;2022-08-11T18:45:11;4.07;;;2.20;;
50821;SDS011;36794;51.212;6.980;2022-08-11T18:48:01;8.98;;;2.20;;
50821;SDS011;36794;51.212;6.980;2022-08-11T18:50:46;8.52;;;2.00;;
50821;SDS011;36794;51.212;6.980;2022-08-11T18:53:33;10.05;;;2.38;;
50821;SDS011;36794;51.212;6.980;2022-08-11T18:56:20;8.02;;;2.00;;
50821;SDS011;36794;51.212;6.980;2022-08-11T18:59:05;4.32;;;1.75;;
50821;SDS011;36794;51.212;6.980;2022-08-11T19:01:51;5.00;;;1.90;;
50821;SDS011;36794;51.212;6.980;2022-08-11T19:04:38;6.20;;;1.90;;
50821;SDS011;36794;51.212;6.980;2022-08-11T19:07:24;9.15;;;1.85;;
50821;SDS011;36794;51.212;6.980;2022-08-11T19:10:09;13.10;;;2.28;;
50821;SDS011;36794;51.212;6.980;2022-08-11T19:12:54;5.53;;;2.00;;
50821;SDS011;36794;51.212;6.980;2022-08-11T19:15:40;7.68;;;2.00;;
50821;SDS011;36794;51.212;6.980;2022-08-11T19:18:25;8.15;;;2.10;;
50821;SDS011;36794;51.212;6.980;2022-08-11T19:21:11;6.55;;;2.05;;
50821;SDS011;36794;51.212;6.980;2022-08-11T19:23:57;8.57;;;2.30;;
50821;SDS011;36794;51.212;6.980;2022-08-11T19:26:43;7.93;;;2.08;;
50821;SDS011;36794;51.212;6.980;2022-08-11T19:29:28;6.20;;;2.08;;
50821;SDS011;36794;51.212;6.980;2022-08-11T19:32:15;5.28;;;2.03;;
50821;SDS011;36794;51.212;6.980;2022-08-11T19:35:00;7.40;;;2.20;;
50821;SDS011;36794;51.212;6.980;2022-08-11T19:37:46;6.00;;;1.95;;
50821;SDS011;36794;51.212;6.980;2022-08-11T19:40:31;7.28;;;2.10;;
50821;SDS011;36794;51.212;6.980;2022-08-11T19:43:16;5.93;;;2.05;;
50821;SDS011;36794;51.212;6.980;2022-08-11T19:46:01;6.70;;;1.92;;